createdAt,value
2022-12-13T00:01:47.738Z,38.70
2022-12-13T00:04:18.258Z,33.80
2022-12-13T00:06:46.836Z,36.40
2022-12-13T00:09:16.244Z,66.27
2022-12-13T00:11:44.787Z,68.53
2022-12-13T00:14:14.211Z,49.60
2022-12-13T00:16:46.021Z,55.10
2022-12-13T00:19:14.702Z,44.37
2022-12-13T00:21:44.423Z,42.90
2022-12-13T00:24:12.612Z,43.80
2022-12-13T00:26:41.425Z,38.10
2022-12-13T00:29:10.468Z,44.97
2022-12-13T00:32:00.020Z,40.60
2022-12-13T00:34:27.282Z,31.67
2022-12-13T00:36:59.021Z,27.73
2022-12-13T00:39:27.438Z,24.80
2022-12-13T00:41:55.573Z,27.63
2022-12-13T00:44:23.835Z,26.30
2022-12-13T00:46:53.310Z,41.37
2022-12-13T00:49:21.581Z,42.50
2022-12-13T00:51:49.912Z,34.73
2022-12-13T00:54:19.436Z,42.27
2022-12-13T00:56:47.668Z,46.27
2022-12-13T00:59:16.651Z,44.00
2022-12-13T01:01:45.559Z,46.17
2022-12-13T01:04:14.002Z,47.20
2022-12-13T01:06:43.849Z,52.40
2022-12-13T01:09:18.454Z,59.43
2022-12-13T01:11:48.872Z,51.40
2022-12-13T01:14:17.399Z,56.50
2022-12-13T01:16:45.505Z,53.00
2022-12-13T01:19:13.689Z,49.77
2022-12-13T01:21:42.035Z,57.17
2022-12-13T01:24:10.259Z,138.73
2022-12-13T01:26:38.488Z,57.20
2022-12-13T01:29:08.947Z,58.80
2022-12-13T01:31:41.383Z,50.93
2022-12-13T01:34:10.663Z,62.17
2022-12-13T01:36:39.851Z,56.47
2022-12-13T01:39:15.256Z,77.53
2022-12-13T01:41:45.268Z,54.17
2022-12-13T01:44:46.755Z,111.53
2022-12-13T01:47:19.259Z,65.72
2022-12-13T01:49:47.773Z,77.97
2022-12-13T01:52:18.008Z,46.47
2022-12-13T01:54:50.435Z,62.53
2022-12-13T01:57:21.143Z,38.22
2022-12-13T01:59:51.404Z,39.83
2022-12-13T02:02:21.357Z,41.53
2022-12-13T02:04:54.488Z,34.67
2022-12-13T02:07:28.974Z,41.30
2022-12-13T02:10:00.154Z,45.33
2022-12-13T02:12:30.383Z,36.67
2022-12-13T02:15:00.627Z,42.35
2022-12-13T02:18:00.189Z,36.40
2022-12-13T02:20:46.574Z,42.22
2022-12-13T02:23:31.923Z,43.45
2022-12-13T02:26:29.028Z,39.45
2022-12-13T02:29:11.068Z,37.33
2022-12-13T02:31:46.418Z,39.83
2022-12-13T02:34:22.912Z,39.55
2022-12-13T02:36:57.588Z,45.10
2022-12-13T02:39:32.403Z,37.92
2022-12-13T02:42:05.911Z,37.72
2022-12-13T02:44:40.734Z,36.05
2022-12-13T02:47:22.562Z,41.83
2022-12-13T02:49:54.018Z,37.90
2022-12-13T02:52:26.385Z,36.22
2022-12-13T02:54:56.314Z,30.80
2022-12-13T02:57:30.989Z,35.55
2022-12-13T03:00:02.180Z,29.15
2022-12-13T03:02:43.684Z,37.40
2022-12-13T03:05:39.484Z,26.70
2022-12-13T03:08:21.688Z,29.70
2022-12-13T03:10:59.644Z,37.03
2022-12-13T03:13:37.029Z,36.67
2022-12-13T03:16:23.693Z,39.50
2022-12-13T03:18:54.977Z,34.28
2022-12-13T03:21:23.415Z,37.03
2022-12-13T03:23:51.833Z,35.75
2022-12-13T03:26:23.514Z,31.45
2022-12-13T03:28:52.188Z,37.58
2022-12-13T03:31:21.069Z,36.55
2022-12-13T03:33:50.248Z,44.17
2022-12-13T03:36:20.289Z,45.10
2022-12-13T03:38:52.276Z,41.72
2022-12-13T03:41:23.334Z,48.13
2022-12-13T03:43:51.689Z,39.40
2022-12-13T03:46:19.882Z,40.85
2022-12-13T03:48:48.048Z,43.28
2022-12-13T03:51:16.247Z,46.88
2022-12-13T03:53:45.696Z,42.97
2022-12-13T03:56:14.048Z,47.40
2022-12-13T03:58:43.228Z,39.80
2022-12-13T04:01:13.947Z,51.22
2022-12-13T04:03:43.585Z,41.22
2022-12-13T04:06:12.458Z,44.90
2022-12-13T04:08:41.283Z,80.53
2022-12-13T04:11:28.211Z,42.40
2022-12-13T04:13:58.157Z,47.42
2022-12-13T04:16:27.370Z,49.45
2022-12-13T04:18:55.570Z,44.42
2022-12-13T04:21:23.752Z,45.80
2022-12-13T04:23:51.901Z,50.25
2022-12-13T04:26:21.531Z,46.17
2022-12-13T04:28:54.439Z,49.97
2022-12-13T04:31:23.181Z,47.00
2022-12-13T04:33:52.455Z,46.33
2022-12-13T04:36:31.208Z,43.25
2022-12-13T04:39:01.788Z,47.63
2022-12-13T04:41:36.260Z,42.75
2022-12-13T04:44:06.571Z,39.15
2022-12-13T04:46:55.407Z,40.88
2022-12-13T04:49:29.451Z,46.33
2022-12-13T04:52:01.370Z,42.72
2022-12-13T04:54:36.036Z,44.08
2022-12-13T04:57:07.860Z,40.45
2022-12-13T04:59:36.908Z,41.30
2022-12-13T05:02:05.738Z,42.05
2022-12-13T05:04:34.387Z,38.55
2022-12-13T05:07:02.707Z,42.95
2022-12-13T05:09:31.031Z,44.42
2022-12-13T05:12:01.203Z,45.75
2022-12-13T05:14:31.558Z,41.13
2022-12-13T05:16:59.893Z,41.83
2022-12-13T05:19:30.367Z,39.85
2022-12-13T05:22:01.476Z,39.08
2022-12-13T05:24:31.409Z,40.45
2022-12-13T05:26:59.945Z,38.17
2022-12-13T05:29:28.382Z,45.33
2022-12-13T05:31:57.999Z,30.58
2022-12-13T05:34:26.260Z,37.15
2022-12-13T05:36:54.786Z,35.28
2022-12-13T05:39:29.462Z,30.98
2022-12-13T05:42:01.816Z,29.40
2022-12-13T05:44:31.314Z,30.48
2022-12-13T05:47:02.008Z,30.88
2022-12-13T05:49:30.747Z,27.50
2022-12-13T05:51:58.841Z,27.17
2022-12-13T05:54:26.993Z,30.42
2022-12-13T05:56:55.102Z,30.35
2022-12-13T05:59:23.469Z,31.75
2022-12-13T06:01:51.684Z,29.15
2022-12-13T06:04:22.363Z,34.53
2022-12-13T06:06:51.850Z,34.70
2022-12-13T06:09:20.488Z,35.50
2022-12-13T06:11:48.857Z,29.30
2022-12-13T06:14:21.474Z,26.13
2022-12-13T06:16:52.202Z,32.25
2022-12-13T06:19:22.384Z,30.75
2022-12-13T06:21:50.878Z,28.63
2022-12-13T06:24:21.183Z,26.35
2022-12-13T06:26:50.019Z,31.80
2022-12-13T06:29:23.905Z,37.70
2022-12-13T06:32:02.528Z,29.73
2022-12-13T06:34:35.587Z,32.05
2022-12-13T06:37:05.859Z,32.78
2022-12-13T06:39:34.081Z,32.53
2022-12-13T06:42:03.549Z,34.70
2022-12-13T06:44:31.873Z,31.13
2022-12-13T06:47:10.335Z,52.78
2022-12-13T06:49:44.534Z,43.08
2022-12-13T06:52:14.774Z,29.05
2022-12-13T06:54:43.696Z,31.95
2022-12-13T06:57:12.785Z,32.20
2022-12-13T06:59:41.824Z,35.17
2022-12-13T07:02:24.665Z,29.85
2022-12-13T07:04:57.274Z,29.98
2022-12-13T07:07:26.319Z,27.88
2022-12-13T07:09:54.908Z,32.40
2022-12-13T07:12:23.475Z,33.13
2022-12-13T07:14:51.676Z,35.63
2022-12-13T07:17:33.544Z,26.88
2022-12-13T07:20:08.001Z,35.67
2022-12-13T07:22:44.828Z,37.08
2022-12-13T07:25:28.074Z,40.40
2022-12-13T07:28:01.580Z,47.92
2022-12-13T07:30:31.523Z,46.65
2022-12-13T07:32:59.692Z,47.00
2022-12-13T07:35:29.546Z,41.83
2022-12-13T07:37:57.863Z,38.55
2022-12-13T07:40:26.364Z,42.20
2022-12-13T07:42:56.643Z,36.72
2022-12-13T07:45:26.937Z,34.83
2022-12-13T07:47:55.115Z,40.20
2022-12-13T07:50:25.637Z,32.97
2022-12-13T07:52:55.673Z,36.75
2022-12-13T07:55:33.585Z,43.22
2022-12-13T07:58:08.498Z,39.17
2022-12-13T08:00:37.201Z,39.00
2022-12-13T08:03:05.844Z,35.53
2022-12-13T08:05:38.537Z,37.72
2022-12-13T08:08:10.427Z,38.53
2022-12-13T08:10:39.121Z,34.97
2022-12-13T08:13:07.517Z,42.75
2022-12-13T08:15:35.771Z,35.58
2022-12-13T08:18:04.133Z,42.40
2022-12-13T08:20:32.263Z,39.10
2022-12-13T08:23:02.333Z,40.70
2022-12-13T08:25:32.821Z,38.08
2022-12-13T08:28:02.280Z,45.03
2022-12-13T08:30:32.268Z,42.45
2022-12-13T08:33:05.135Z,39.92
2022-12-13T08:35:34.932Z,40.30
2022-12-13T08:38:03.886Z,37.47
2022-12-13T08:40:33.434Z,43.13
2022-12-13T08:43:01.603Z,50.90
2022-12-13T08:45:31.651Z,47.28
2022-12-13T08:48:00.638Z,56.88
2022-12-13T08:50:29.889Z,49.17
2022-12-13T08:52:58.876Z,42.70
2022-12-13T08:55:32.120Z,44.25
2022-12-13T08:58:08.440Z,43.75
2022-12-13T09:00:39.017Z,45.10
2022-12-13T09:03:10.277Z,35.67
2022-12-13T09:05:39.478Z,40.47
2022-12-13T09:08:23.643Z,39.70
2022-12-13T09:11:01.058Z,40.53
2022-12-13T09:13:33.037Z,38.03
2022-12-13T09:16:05.730Z,38.13
2022-12-13T09:18:42.814Z,39.42
2022-12-13T09:21:22.031Z,36.60
2022-12-13T09:23:50.976Z,35.08
2022-12-13T09:26:19.181Z,37.28
2022-12-13T09:28:55.037Z,33.72
2022-12-13T09:31:23.304Z,28.05
2022-12-13T09:33:51.425Z,34.40
2022-12-13T09:36:21.413Z,32.63
2022-12-13T09:38:49.697Z,34.38
2022-12-13T09:41:29.296Z,34.38
2022-12-13T09:44:03.343Z,38.10
2022-12-13T09:46:44.871Z,37.33
2022-12-13T09:49:22.996Z,38.78
2022-12-13T09:52:10.252Z,37.58
2022-12-13T09:54:48.290Z,41.53
2022-12-13T09:57:30.929Z,46.20
2022-12-13T10:00:04.612Z,41.30
2022-12-13T10:02:43.580Z,44.70
2022-12-13T10:05:22.975Z,47.42
2022-12-13T10:07:55.650Z,43.67
2022-12-13T10:10:24.085Z,57.75
2022-12-13T10:12:58.118Z,47.53
2022-12-13T10:15:29.704Z,50.00
2022-12-13T10:17:58.470Z,54.88
2022-12-13T10:20:30.036Z,45.88
2022-12-13T10:25:51.115Z,50.10
2022-12-13T10:28:26.478Z,45.58
2022-12-13T10:30:58.356Z,51.85
2022-12-13T10:33:30.653Z,47.90
2022-12-13T10:36:14.178Z,54.22
2022-12-13T10:38:45.599Z,49.63
2022-12-13T10:41:35.934Z,55.67
2022-12-13T10:44:25.694Z,51.70
2022-12-13T10:47:06.069Z,51.33
2022-12-13T10:49:40.561Z,57.85
2022-12-13T10:52:30.628Z,55.85
2022-12-13T10:55:02.299Z,52.30
2022-12-13T10:57:30.630Z,64.78
2022-12-13T10:59:59.063Z,50.70
2022-12-13T11:02:36.209Z,50.72
2022-12-13T11:05:26.647Z,52.53
2022-12-13T11:08:00.869Z,55.78
2022-12-13T11:10:30.911Z,60.70
2022-12-13T11:13:03.816Z,59.58
2022-12-13T11:15:35.624Z,56.58
2022-12-13T11:18:09.601Z,57.72
2022-12-13T11:20:39.258Z,58.10
2022-12-13T11:23:16.381Z,53.13
2022-12-13T11:25:46.581Z,59.58
2022-12-13T11:28:33.514Z,60.10
2022-12-13T11:31:12.340Z,57.28
2022-12-13T11:33:53.504Z,64.03
2022-12-13T11:36:32.865Z,54.45
2022-12-13T11:39:18.549Z,60.50
2022-12-13T11:41:55.304Z,54.17
2022-12-13T11:44:30.901Z,67.03
2022-12-13T11:47:02.150Z,62.95
2022-12-13T11:49:39.388Z,67.47
2022-12-13T11:52:15.390Z,53.10
2022-12-13T11:54:55.555Z,55.78
2022-12-13T11:57:36.773Z,55.60
2022-12-13T12:00:13.211Z,70.82
2022-12-13T12:02:47.094Z,50.25
2022-12-13T12:05:29.212Z,51.73
2022-12-13T12:10:56.143Z,47.45
2022-12-13T12:13:34.483Z,56.57
2022-12-13T12:16:30.058Z,55.97
2022-12-13T12:19:01.485Z,45.40
2022-12-13T12:22:12.056Z,46.53
2022-12-13T12:24:34.850Z,55.53
2022-12-13T12:27:22.390Z,46.73
2022-12-13T12:30:11.052Z,49.83
2022-12-13T12:32:48.363Z,53.37
2022-12-13T12:35:30.358Z,51.50
2022-12-13T12:38:09.931Z,57.50
2022-12-13T12:41:15.959Z,60.53
2022-12-13T12:43:46.142Z,58.47
2022-12-13T12:47:01.498Z,67.43
2022-12-13T12:49:58.404Z,62.00
2022-12-13T12:52:35.031Z,62.63
2022-12-13T12:55:17.297Z,52.45
2022-12-13T12:57:55.098Z,56.63
2022-12-13T13:00:26.030Z,53.97
2022-12-13T13:03:01.819Z,57.67
2022-12-13T13:05:35.912Z,57.22
2022-12-13T13:08:10.706Z,63.35
2022-12-13T13:10:42.241Z,57.25
2022-12-13T13:13:47.370Z,56.63
2022-12-13T13:16:34.277Z,54.75
2022-12-13T13:19:02.933Z,58.70
2022-12-13T13:21:47.324Z,59.20
2022-12-13T13:24:26.226Z,58.70
2022-12-13T13:26:57.784Z,62.03
2022-12-13T13:29:37.725Z,54.65
2022-12-13T13:32:28.355Z,60.65
2022-12-13T13:35:32.235Z,59.37
2022-12-13T13:38:04.388Z,52.40
2022-12-13T13:40:35.395Z,50.50
2022-12-13T13:43:16.250Z,55.40
2022-12-13T13:46:00.013Z,51.00
2022-12-13T13:49:00.169Z,63.07
2022-12-13T13:55:41.525Z,71.22
2022-12-13T13:58:36.709Z,63.77
2022-12-13T14:01:35.979Z,46.63
2022-12-13T14:04:55.280Z,55.67
2022-12-13T14:07:57.021Z,54.17
2022-12-13T14:10:43.486Z,51.60
2022-12-13T14:14:01.233Z,88.10
2022-12-13T14:17:02.024Z,47.07
2022-12-13T14:19:59.032Z,51.33
2022-12-13T14:22:35.732Z,59.73
2022-12-13T14:25:40.224Z,47.47
2022-12-13T14:28:16.660Z,53.13
2022-12-13T14:30:47.975Z,55.87
2022-12-13T14:33:27.499Z,49.37
2022-12-13T14:35:57.410Z,52.83
2022-12-13T14:38:27.227Z,46.50
2022-12-13T14:40:58.632Z,42.03
2022-12-13T14:43:29.704Z,53.33
2022-12-13T14:46:01.280Z,59.43
2022-12-13T14:48:33.715Z,65.77
2022-12-13T14:51:01.875Z,51.63
2022-12-13T14:53:37.188Z,43.97
2022-12-13T14:56:07.813Z,48.50
2022-12-13T14:58:37.395Z,43.17
2022-12-13T15:01:07.503Z,49.47
2022-12-13T15:03:36.693Z,42.53
2022-12-13T15:06:05.452Z,43.90
2022-12-13T15:08:36.553Z,53.10
2022-12-13T15:11:09.508Z,38.10
2022-12-13T15:13:41.644Z,38.00
2022-12-13T15:16:18.253Z,46.03
2022-12-13T15:18:50.997Z,42.03
2022-12-13T15:21:28.556Z,42.17
2022-12-13T15:24:01.226Z,46.67
2022-12-13T15:26:35.449Z,41.20
2022-12-13T15:29:09.854Z,42.20
2022-12-13T15:31:41.053Z,43.53
2022-12-13T15:34:29.216Z,36.27
2022-12-13T15:36:59.835Z,46.83
2022-12-13T15:39:30.893Z,42.60
2022-12-13T15:41:59.585Z,44.20
2022-12-13T15:44:29.546Z,42.03
2022-12-13T15:47:04.169Z,43.80
2022-12-13T15:49:35.204Z,54.20
2022-12-13T15:52:05.606Z,45.23
2022-12-13T15:54:34.754Z,45.20
2022-12-13T15:57:13.531Z,61.80
2022-12-13T15:59:43.253Z,53.13
2022-12-13T16:02:18.370Z,44.30
2022-12-13T16:04:46.685Z,47.53
2022-12-13T16:07:24.234Z,52.87
2022-12-13T16:09:54.806Z,50.10
2022-12-13T16:12:27.050Z,47.80
2022-12-13T16:15:14.014Z,60.37
2022-12-13T16:18:08.182Z,51.70
2022-12-13T16:20:36.733Z,53.67
2022-12-13T16:23:08.791Z,49.27
2022-12-13T16:25:37.627Z,49.13
2022-12-13T16:28:06.339Z,51.27
2022-12-13T16:31:00.146Z,56.50
2022-12-13T16:33:29.790Z,49.23
2022-12-13T16:35:58.107Z,55.30
2022-12-13T16:38:27.455Z,54.03
2022-12-13T16:40:57.348Z,48.40
2022-12-13T16:43:33.525Z,39.43
2022-12-13T16:47:14.280Z,44.77
2022-12-13T16:48:54.702Z,46.23
2022-12-13T16:51:23.543Z,48.03
2022-12-13T16:53:51.640Z,52.03
2022-12-13T16:56:21.749Z,54.93
2022-12-13T16:58:50.920Z,51.77
2022-12-13T17:01:20.957Z,54.80
2022-12-13T17:03:49.470Z,62.20
2022-12-13T17:06:24.150Z,71.13
2022-12-13T17:08:52.429Z,74.77
2022-12-13T17:11:20.615Z,68.20
2022-12-13T17:13:49.732Z,58.60
2022-12-13T17:16:17.871Z,70.10
2022-12-13T17:18:46.389Z,62.63
2022-12-13T17:21:14.546Z,64.83
2022-12-13T17:23:44.075Z,79.03
2022-12-13T17:26:12.874Z,91.70
2022-12-13T17:28:41.110Z,86.30
2022-12-13T17:31:11.995Z,81.50
2022-12-13T17:33:40.660Z,88.90
2022-12-13T17:36:10.797Z,79.43
2022-12-13T17:38:42.061Z,66.80
2022-12-13T17:41:11.616Z,66.00
2022-12-13T17:43:40.508Z,78.73
2022-12-13T17:46:11.859Z,66.83
2022-12-13T17:48:41.393Z,70.93
2022-12-13T17:51:11.159Z,65.73
2022-12-13T17:53:41.023Z,63.43
2022-12-13T17:56:13.018Z,68.83
2022-12-13T17:58:41.186Z,68.47
2022-12-13T18:01:14.408Z,67.63
2022-12-13T18:03:42.994Z,71.03
2022-12-13T18:06:11.974Z,63.70
2022-12-13T18:08:42.490Z,61.80
2022-12-13T18:14:01.855Z,67.30
2022-12-13T18:16:36.507Z,58.17
2022-12-13T18:19:07.094Z,59.70
2022-12-13T18:21:36.710Z,65.63
2022-12-13T18:24:06.195Z,69.17
2022-12-13T18:26:36.217Z,57.23
2022-12-13T18:29:05.140Z,72.33
2022-12-13T18:31:33.632Z,67.43
2022-12-13T18:34:01.891Z,56.80
2022-12-13T18:36:30.101Z,56.90
2022-12-13T18:38:58.290Z,55.37
2022-12-13T18:41:28.428Z,54.17
2022-12-13T18:43:59.995Z,54.10
2022-12-13T18:46:29.481Z,50.23
2022-12-13T18:48:57.890Z,53.83
2022-12-13T18:51:26.582Z,55.80
2022-12-13T18:53:56.016Z,55.50
2022-12-13T18:56:25.665Z,56.77
2022-12-13T18:58:54.211Z,54.67
2022-12-13T19:01:26.884Z,48.70
2022-12-13T19:03:55.953Z,50.87
2022-12-13T19:06:26.079Z,50.17
2022-12-13T19:08:56.556Z,45.23
2022-12-13T19:11:26.072Z,50.87
2022-12-13T19:13:54.410Z,52.53
2022-12-13T19:16:25.258Z,57.10
2022-12-13T19:18:53.470Z,52.93
2022-12-13T19:21:23.162Z,55.70
2022-12-13T19:23:57.020Z,67.13
2022-12-13T19:26:26.930Z,67.10
2022-12-13T19:28:57.038Z,60.07
2022-12-13T19:31:31.733Z,67.07
2022-12-13T19:34:01.490Z,59.57
2022-12-13T19:36:29.740Z,52.17
2022-12-13T19:38:57.952Z,50.83
2022-12-13T19:41:27.921Z,50.10
2022-12-13T19:43:56.076Z,46.33
2022-12-13T19:46:24.512Z,54.70
2022-12-13T19:48:54.090Z,50.00
2022-12-13T19:51:22.851Z,56.90
2022-12-13T19:53:51.128Z,54.07
2022-12-13T19:56:21.930Z,50.80
2022-12-13T19:58:51.290Z,51.43
2022-12-13T20:01:19.897Z,45.43
2022-12-13T20:03:48.429Z,45.60
2022-12-13T20:06:19.798Z,51.27
2022-12-13T20:08:47.973Z,44.93
2022-12-13T20:11:19.466Z,47.90
2022-12-13T20:13:48.775Z,44.17
2022-12-13T20:16:18.666Z,42.67
2022-12-13T20:18:47.334Z,44.07
2022-12-13T20:21:17.519Z,50.30
2022-12-13T20:23:48.983Z,45.77
2022-12-13T20:26:34.650Z,42.73
2022-12-13T20:29:02.750Z,44.33
2022-12-13T20:31:32.360Z,38.33
2022-12-13T20:34:02.969Z,43.07
2022-12-13T20:36:32.909Z,39.07
2022-12-13T20:39:03.109Z,50.83
2022-12-13T20:41:33.367Z,50.63
2022-12-13T20:44:03.944Z,50.93
2022-12-13T20:46:32.269Z,58.73
2022-12-13T20:49:02.671Z,47.07
2022-12-13T20:51:33.944Z,49.20
2022-12-13T20:54:02.700Z,52.37
2022-12-13T20:56:34.381Z,53.73
2022-12-13T20:59:03.577Z,65.40
2022-12-13T21:01:35.064Z,51.57
2022-12-13T21:04:05.494Z,51.37
2022-12-13T21:06:37.254Z,49.17
2022-12-13T21:09:06.343Z,51.77
2022-12-13T21:11:36.302Z,55.47
2022-12-13T21:14:11.000Z,55.40
2022-12-13T21:16:44.015Z,47.63
2022-12-13T21:19:14.214Z,48.13
2022-12-13T21:21:44.022Z,42.33
2022-12-13T21:24:14.954Z,48.37
2022-12-13T21:26:43.398Z,50.20
2022-12-13T21:29:12.928Z,46.83
2022-12-13T21:31:42.984Z,48.23
2022-12-13T21:34:12.691Z,43.77
2022-12-13T21:36:44.067Z,46.57
2022-12-13T21:39:14.166Z,47.30
2022-12-13T21:41:44.182Z,46.57
2022-12-13T21:44:14.165Z,51.37
2022-12-13T21:49:30.938Z,52.53
2022-12-13T21:52:00.556Z,53.67
2022-12-13T21:54:28.842Z,48.90
2022-12-13T21:57:14.628Z,50.00
2022-12-13T21:59:42.898Z,46.03
2022-12-13T22:02:16.410Z,48.47
2022-12-13T22:04:48.199Z,47.13
2022-12-13T22:07:20.625Z,53.83
2022-12-13T22:09:49.704Z,46.47
2022-12-13T22:12:23.366Z,44.90
2022-12-13T22:14:52.663Z,44.33
2022-12-13T22:17:28.278Z,55.17
2022-12-13T22:20:01.988Z,46.57
2022-12-13T22:22:31.784Z,40.43
2022-12-13T22:24:59.967Z,51.13
2022-12-13T22:27:28.263Z,46.33
2022-12-13T22:29:57.943Z,51.47
2022-12-13T22:32:27.388Z,45.97
2022-12-13T22:34:55.709Z,46.30
2022-12-13T22:37:23.975Z,43.07
2022-12-13T22:39:53.551Z,42.93
2022-12-13T22:42:22.449Z,38.83
2022-12-13T22:44:50.995Z,52.77
2022-12-13T22:47:19.187Z,45.50
2022-12-13T22:49:48.778Z,51.40
2022-12-13T22:52:17.717Z,45.13
2022-12-13T22:54:45.748Z,47.87
2022-12-13T22:57:15.510Z,41.03
2022-12-13T22:59:43.647Z,46.13
2022-12-13T23:02:12.979Z,46.10
2022-12-13T23:04:41.241Z,44.03
2022-12-13T23:07:09.327Z,46.30
2022-12-13T23:09:37.836Z,47.30
2022-12-13T23:12:32.613Z,46.10
2022-12-13T23:15:02.155Z,42.80
2022-12-13T23:17:31.643Z,44.10
2022-12-13T23:19:59.987Z,43.50
2022-12-13T23:22:28.130Z,43.57
2022-12-13T23:24:56.198Z,44.60
2022-12-13T23:27:24.966Z,51.63
2022-12-13T23:29:53.255Z,47.80
2022-12-13T23:32:23.064Z,46.13
2022-12-13T23:34:51.516Z,43.70
2022-12-13T23:37:19.585Z,44.40
2022-12-13T23:39:48.590Z,45.43
2022-12-13T23:42:16.698Z,42.33
2022-12-13T23:44:44.888Z,47.53
2022-12-13T23:47:13.070Z,59.17
2022-12-13T23:49:42.571Z,41.70
2022-12-13T23:52:10.676Z,43.47
2022-12-13T23:54:38.734Z,50.80
2022-12-13T23:57:06.826Z,41.10
2022-12-13T23:59:34.940Z,44.20
